Time;durP1;ratioP1;P1;durP2;ratioP2;P2;SDS_P1;SDS_P2;PMS_P1;PMS_P2;Temp;Humidity;BMP_temperature;BMP_pressure;BME280_temperature;BME280_humidity;BME280_pressure;Samples;Min_cycle;Max_cycle;Signal;HPM_P1;HPM_P2
2023/03/01 00:01:21;;;;;;;26.55;13.68;;;2.60;99.90;;;;;;5051713;28;20079;-70
2023/03/01 00:03:47;;;;;;;30.65;16.20;;;2.50;99.90;;;;;;5050867;28;20040;-73
2023/03/01 00:06:12;;;;;;;28.80;15.45;;;2.60;99.90;;;;;;5051331;28;20036;-70
2023/03/01 00:08:38;;;;;;;27.17;14.25;;;2.60;99.90;;;;;;5049927;28;20013;-70
2023/03/01 00:11:12;;;;;;;30.10;14.68;;;2.60;99.90;;;;;;5051520;28;20041;-72
2023/03/01 00:13:37;;;;;;;30.77;14.70;;;2.60;99.90;;;;;;5054013;28;20028;-69
2023/03/01 00:16:09;;;;;;;28.55;15.32;;;2.60;99.90;;;;;;5055395;28;20029;-72
2023/03/01 00:18:34;;;;;;;29.27;15.03;;;2.60;99.90;;;;;;5049155;28;20125;-71
2023/03/01 00:21:00;;;;;;;31.25;15.55;;;2.60;99.90;;;;;;5054250;28;20341;-70
2023/03/01 00:23:26;;;;;;;29.17;14.43;;;2.60;99.90;;;;;;5053603;28;20040;-70
2023/03/01 00:25:52;;;;;;;29.63;14.65;;;2.60;99.90;;;;;;5055915;28;20091;-70
2023/03/01 00:28:19;;;;;;;30.42;15.38;;;2.60;99.90;;;;;;5053807;28;20025;-70
2023/03/01 00:30:45;;;;;;;30.23;16.42;;;2.50;99.90;;;;;;5052306;28;20046;-72
2023/03/01 00:33:11;;;;;;;34.30;16.75;;;2.50;99.90;;;;;;5050551;28;20112;-70
2023/03/01 00:35:36;;;;;;;28.48;15.23;;;2.50;99.90;;;;;;5055884;28;20111;-70
2023/03/01 00:38:03;;;;;;;33.40;15.93;;;2.50;99.90;;;;;;5058980;28;20028;-70
2023/03/01 00:40:29;;;;;;;32.90;16.88;;;2.50;99.90;;;;;;5055154;28;20032;-70
2023/03/01 00:42:55;;;;;;;29.27;15.82;;;2.50;99.90;;;;;;5054023;28;20037;-70
2023/03/01 00:45:21;;;;;;;34.00;16.85;;;2.50;99.90;;;;;;5057656;28;20098;-70
2023/03/01 00:47:48;;;;;;;33.58;16.98;;;2.50;99.90;;;;;;5064715;28;20526;-70
2023/03/01 00:50:14;;;;;;;34.47;15.98;;;2.50;99.90;;;;;;5066431;28;20491;-70
2023/03/01 00:52:40;;;;;;;30.27;16.52;;;2.50;99.90;;;;;;5060231;28;20494;-70
2023/03/01 00:55:06;;;;;;;30.65;15.52;;;2.40;99.90;;;;;;5058030;28;20039;-72
2023/03/01 00:57:33;;;;;;;33.03;16.67;;;2.40;99.90;;;;;;5061554;28;20040;-69
2023/03/01 00:59:58;;;;;;;38.40;18.10;;;2.40;99.90;;;;;;5067973;28;20021;-70
2023/03/01 01:02:24;;;;;;;33.85;16.85;;;2.40;99.90;;;;;;5060270;28;20037;-70
2023/03/01 01:04:49;;;;;;;37.33;18.40;;;2.40;99.90;;;;;;5052969;28;20029;-70
2023/03/01 01:07:15;;;;;;;33.65;17.48;;;2.40;99.90;;;;;;5053164;28;20036;-69
2023/03/01 01:09:41;;;;;;;39.22;19.27;;;2.40;99.90;;;;;;5049760;28;20029;-70
2023/03/01 01:12:07;;;;;;;36.05;18.17;;;2.30;99.90;;;;;;5053296;28;20031;-70
2023/03/01 01:14:32;;;;;;;37.75;19.02;;;2.30;99.90;;;;;;5053024;28;20145;-70
2023/03/01 01:16:58;;;;;;;33.78;18.02;;;2.30;99.90;;;;;;5051665;28;20435;-70
2023/03/01 01:19:25;;;;;;;40.03;18.83;;;2.30;99.90;;;;;;5052816;28;20392;-70
2023/03/01 01:21:51;;;;;;;34.55;18.35;;;2.30;99.90;;;;;;5054248;28;20044;-70
2023/03/01 01:24:17;;;;;;;39.28;19.55;;;2.20;99.90;;;;;;5053156;28;20033;-70
2023/03/01 01:26:42;;;;;;;38.70;18.48;;;2.20;99.90;;;;;;5044964;28;20099;-70
2023/03/01 01:29:08;;;;;;;37.70;18.27;;;2.20;99.90;;;;;;5047751;28;20064;-70
2023/03/01 01:31:36;;;;;;;39.22;19.33;;;2.20;99.90;;;;;;5059610;28;20016;-70
2023/03/01 01:34:04;;;;;;;39.90;18.95;;;2.20;99.90;;;;;;5045830;28;20835;-69
2023/03/01 01:36:30;;;;;;;39.22;19.95;;;2.20;99.90;;;;;;5058313;28;20020;-69
2023/03/01 01:38:56;;;;;;;41.35;19.67;;;2.20;99.90;;;;;;5060260;28;20021;-69
2023/03/01 01:41:24;;;;;;;38.00;19.35;;;2.20;99.90;;;;;;5065332;28;20059;-70
2023/03/01 01:44:14;;;;;;;41.45;20.67;;;2.20;99.90;;;;;;5047788;28;20041;-69
2023/03/01 01:46:47;;;;;;;37.75;19.77;;;2.20;99.90;;;;;;5061580;28;20477;-70
2023/03/01 01:49:24;;;;;;;39.05;20.35;;;2.20;99.90;;;;;;5042523;28;20029;-70
2023/03/01 01:51:53;;;;;;;38.83;20.55;;;2.10;99.90;;;;;;5057088;28;20045;-70
2023/03/01 01:54:27;;;;;;;42.85;21.75;;;2.10;99.90;;;;;;5034195;28;20025;-72
2023/03/01 01:56:58;;;;;;;44.65;22.25;;;2.10;99.90;;;;;;5031774;28;20389;-71
2023/03/01 01:59:25;;;;;;;43.07;20.93;;;2.10;99.90;;;;;;5033295;28;20029;-72
2023/03/01 02:01:54;;;;;;;47.50;22.25;;;2.20;99.90;;;;;;5049494;28;20077;-68
2023/03/01 02:04:20;;;;;;;42.72;22.92;;;2.10;99.90;;;;;;5060743;28;20043;-73
2023/03/01 02:06:56;;;;;;;45.25;22.55;;;2.10;99.90;;;;;;5057015;28;20418;-73
2023/03/01 02:09:23;;;;;;;43.72;22.17;;;2.10;99.90;;;;;;5064449;28;20029;-69
2023/03/01 02:11:50;;;;;;;41.03;20.27;;;2.10;99.90;;;;;;5059049;28;20075;-74
2023/03/01 02:14:16;;;;;;;44.92;20.40;;;2.10;99.90;;;;;;5069811;28;20039;-69
2023/03/01 02:16:42;;;;;;;46.22;19.65;;;2.10;99.90;;;;;;5059515;28;20041;-71
2023/03/01 02:19:14;;;;;;;47.03;22.17;;;2.10;99.90;;;;;;5047580;28;20029;-73
2023/03/01 02:21:48;;;;;;;;;;;2.10;99.90;;;;;;5059654;28;20472;-72
2023/03/01 02:24:31;;;;;;;48.53;25.30;;;2.10;99.90;;;;;;5070931;28;19939;-71
2023/03/01 02:26:58;;;;;;;52.58;24.73;;;2.00;99.90;;;;;;5045239;28;20073;-71
2023/03/01 02:29:24;;;;;;;49.10;23.55;;;2.00;99.90;;;;;;5066056;28;20021;-67
2023/03/01 02:31:55;;;;;;;47.60;23.10;;;2.00;99.90;;;;;;5059612;28;20087;-74
2023/03/01 02:34:24;;;;;;;49.35;25.27;;;2.00;99.90;;;;;;5054914;28;20016;-71
2023/03/01 02:37:14;;;;;;;49.97;25.40;;;2.00;99.90;;;;;;5056176;28;20510;-69
2023/03/01 02:39:47;;;;;;;53.03;26.00;;;2.00;99.90;;;;;;5044467;28;20037;-69
2023/03/01 02:42:17;;;;;;;52.13;24.48;;;2.00;99.90;;;;;;5053935;28;20040;-70
2023/03/01 02:44:43;;;;;;;53.08;25.27;;;2.00;99.90;;;;;;5053331;28;20029;-70
2023/03/01 02:47:09;;;;;;;56.97;26.15;;;2.00;99.90;;;;;;5054197;28;20044;-71
2023/03/01 02:49:36;;;;;;;52.83;25.80;;;2.00;99.90;;;;;;5054834;28;20032;-73
2023/03/01 02:52:36;;;;;;;50.35;24.63;;;2.00;99.90;;;;;;5054929;28;20465;-72
2023/03/01 02:55:09;;;;;;;56.33;27.08;;;2.00;99.90;;;;;;5054690;28;20071;-71
2023/03/01 02:57:38;;;;;;;58.55;24.25;;;2.00;99.90;;;;;;5054838;28;20029;-73
2023/03/01 03:00:09;;;;;;;58.67;26.42;;;2.00;99.90;;;;;;5054812;28;20448;-72
2023/03/01 03:02:35;;;;;;;57.05;26.33;;;1.90;99.90;;;;;;5054772;28;20110;-71
2023/03/01 03:05:08;;;;;;;49.20;25.42;;;1.90;99.90;;;;;;5049802;28;20048;-73
2023/03/01 03:07:34;;;;;;;56.25;26.15;;;1.90;99.90;;;;;;5045009;28;20433;-72
2023/03/01 03:10:01;;;;;;;53.72;26.98;;;1.90;99.90;;;;;;5055136;28;20112;-73
2023/03/01 03:12:26;;;;;;;55.97;25.92;;;1.90;99.90;;;;;;5059843;28;20033;-69
2023/03/01 03:14:52;;;;;;;54.80;26.00;;;1.90;99.90;;;;;;5063357;28;20028;-70
2023/03/01 03:17:17;;;;;;;55.63;25.77;;;1.80;99.90;;;;;;5049632;28;20025;-70
2023/03/01 03:19:45;;;;;;;59.08;26.63;;;1.80;99.90;;;;;;5054021;28;20377;-70
2023/03/01 03:22:11;;;;;;;60.75;27.63;;;1.80;99.90;;;;;;5068234;28;20067;-70
2023/03/01 03:24:37;;;;;;;54.05;25.95;;;1.80;99.90;;;;;;5057270;28;20017;-70
2023/03/01 03:27:04;;;;;;;55.25;27.45;;;1.80;99.90;;;;;;5063082;28;20032;-70
2023/03/01 03:29:29;;;;;;;56.88;27.60;;;1.80;99.90;;;;;;5062853;28;20028;-71
2023/03/01 03:31:55;;;;;;;54.67;26.38;;;1.80;99.90;;;;;;5061205;28;20097;-70
2023/03/01 03:34:20;;;;;;;59.13;27.17;;;1.80;99.90;;;;;;5069547;28;20485;-71
2023/03/01 03:36:46;;;;;;;61.60;27.60;;;1.80;99.90;;;;;;5056619;28;20028;-70
2023/03/01 03:39:12;;;;;;;60.08;26.55;;;1.80;99.90;;;;;;5067641;28;20033;-70
2023/03/01 03:41:37;;;;;;;64.15;29.10;;;1.80;99.90;;;;;;5063522;28;20487;-70
2023/03/01 03:44:03;;;;;;;62.00;27.85;;;1.80;99.90;;;;;;5059783;28;20523;-70
2023/03/01 03:46:28;;;;;;;61.40;28.83;;;1.80;99.90;;;;;;5069858;28;20391;-70
2023/03/01 03:48:54;;;;;;;57.10;28.30;;;1.80;99.90;;;;;;5057407;28;20043;-70
2023/03/01 03:51:22;;;;;;;58.72;27.67;;;1.80;99.90;;;;;;5066018;28;20033;-71
2023/03/01 03:53:48;;;;;;;61.85;28.98;;;1.80;99.90;;;;;;5064834;28;20112;-70
2023/03/01 03:56:13;;;;;;;58.35;27.83;;;1.70;99.90;;;;;;5058179;28;20107;-70
2023/03/01 03:58:39;;;;;;;64.13;28.95;;;1.60;99.90;;;;;;5069111;28;20024;-70
2023/03/01 04:01:05;;;;;;;59.03;27.45;;;1.60;99.90;;;;;;5067661;28;20032;-70
2023/03/01 04:03:31;;;;;;;60.00;29.15;;;1.60;99.90;;;;;;5062064;28;20098;-70
2023/03/01 04:05:59;;;;;;;61.75;29.15;;;1.60;99.90;;;;;;5059978;28;20096;-70
2023/03/01 04:08:25;;;;;;;66.65;31.27;;;1.60;99.90;;;;;;5060605;28;20443;-71
2023/03/01 04:10:59;;;;;;;131.98;36.65;;;1.60;99.90;;;;;;5063551;28;20115;-70
2023/03/01 04:13:25;;;;;;;798.00;110.47;;;1.60;99.90;;;;;;5057232;28;20104;-70
2023/03/01 04:15:54;;;;;;;361.33;59.40;;;1.60;99.90;;;;;;5053165;28;20067;-70
2023/03/01 04:18:21;;;;;;;89.30;35.00;;;1.60;99.90;;;;;;5052875;28;20029;-70
2023/03/01 04:20:47;;;;;;;81.93;35.47;;;1.60;99.90;;;;;;5052908;28;20021;-70
2023/03/01 04:23:20;;;;;;;87.93;37.85;;;1.60;99.90;;;;;;5052086;28;20079;-70
2023/03/01 04:25:55;;;;;;;84.40;35.42;;;1.60;99.90;;;;;;5052966;28;20036;-70
2023/03/01 04:28:39;;;;;;;86.45;35.78;;;1.60;99.90;;;;;;5052827;28;20020;-70
2023/03/01 04:31:13;;;;;;;87.93;35.63;;;1.60;99.90;;;;;;5042620;28;20060;-70
2023/03/01 04:33:41;;;;;;;78.95;34.20;;;1.60;99.90;;;;;;5052866;28;20024;-70
2023/03/01 04:36:08;;;;;;;79.78;34.70;;;1.60;99.90;;;;;;5052940;28;20025;-70
2023/03/01 04:38:34;;;;;;;78.93;33.05;;;1.60;99.90;;;;;;5052773;28;20132;-70
2023/03/01 04:41:00;;;;;;;137.43;40.05;;;1.60;99.90;;;;;;5052583;28;20025;-69
2023/03/01 04:43:26;;;;;;;365.50;58.80;;;1.60;99.90;;;;;;5052115;28;20044;-69
2023/03/01 04:45:51;;;;;;;403.58;63.70;;;1.60;99.90;;;;;;5045097;28;20462;-70
2023/03/01 04:48:16;;;;;;;214.73;44.53;;;1.60;99.90;;;;;;5032600;28;20025;-70
2023/03/01 04:50:42;;;;;;;137.25;40.20;;;1.70;99.90;;;;;;5032878;28;20488;-70
2023/03/01 04:53:08;;;;;;;215.60;41.47;;;1.70;99.90;;;;;;5041472;28;20028;-70
2023/03/01 04:55:33;;;;;;;320.80;48.38;;;1.70;99.90;;;;;;5048765;28;20156;-70
2023/03/01 04:57:59;;;;;;;399.00;60.28;;;1.70;99.90;;;;;;5042831;28;20033;-70
2023/03/01 05:00:24;;;;;;;208.65;43.65;;;1.70;99.90;;;;;;5052132;28;20078;-70
2023/03/01 05:02:54;;;;;;;263.17;45.20;;;1.70;99.90;;;;;;5050620;28;20469;-70
2023/03/01 05:05:25;;;;;;;280.08;42.72;;;1.70;99.90;;;;;;5050936;28;20025;-70
2023/03/01 05:07:57;;;;;;;324.25;46.58;;;1.70;99.90;;;;;;5052560;28;20025;-69
2023/03/01 05:10:23;;;;;;;355.73;50.20;;;1.70;99.90;;;;;;5052146;28;20029;-70
2023/03/01 05:12:49;;;;;;;291.35;45.70;;;1.60;99.90;;;;;;5052367;28;20100;-70
2023/03/01 05:15:15;;;;;;;776.15;103.20;;;1.60;99.90;;;;;;5052199;28;20104;-70
2023/03/01 05:17:40;;;;;;;275.02;41.92;;;1.60;99.90;;;;;;5048261;28;20078;-70
2023/03/01 05:20:10;;;;;;;377.73;48.20;;;1.60;99.90;;;;;;5041177;28;20034;-70
2023/03/01 05:22:35;;;;;;;359.52;44.72;;;1.60;99.90;;;;;;5031948;28;20041;-70
2023/03/01 05:25:02;;;;;;;355.17;48.13;;;1.60;99.90;;;;;;5040840;28;20044;-70
2023/03/01 05:27:27;;;;;;;359.83;47.50;;;1.60;99.90;;;;;;5035758;28;20030;-70
2023/03/01 05:29:53;;;;;;;347.60;43.78;;;1.60;99.90;;;;;;5031983;28;20034;-71
2023/03/01 05:32:18;;;;;;;544.58;67.22;;;1.60;99.90;;;;;;5039223;28;20040;-70
2023/03/01 05:34:46;;;;;;;392.58;49.75;;;1.50;99.90;;;;;;5050145;28;20037;-69
2023/03/01 05:37:12;;;;;;;363.15;45.85;;;1.50;99.90;;;;;;5052242;28;20033;-70
2023/03/01 05:39:37;;;;;;;325.05;42.58;;;1.50;99.90;;;;;;5047213;28;20032;-70
2023/03/01 05:42:03;;;;;;;414.45;47.28;;;1.50;99.90;;;;;;5049112;28;20029;-70
2023/03/01 05:44:29;;;;;;;353.20;43.25;;;1.50;99.90;;;;;;5041235;28;20030;-70
2023/03/01 05:46:55;;;;;;;283.02;38.35;;;1.50;99.90;;;;;;5044595;28;20036;-70
2023/03/01 05:49:23;;;;;;;313.98;42.25;;;1.50;99.90;;;;;;5045674;28;20025;-70
2023/03/01 05:51:51;;;;;;;225.07;37.85;;;1.50;99.90;;;;;;5048087;28;20064;-70
2023/03/01 05:54:19;;;;;;;211.70;34.47;;;1.40;99.90;;;;;;5051576;28;20043;-70
2023/03/01 05:56:45;;;;;;;333.42;44.40;;;1.40;99.90;;;;;;5045016;28;20026;-70
2023/03/01 05:59:11;;;;;;;243.48;39.00;;;1.40;99.90;;;;;;5043812;28;20087;-70
2023/03/01 06:01:37;;;;;;;298.83;44.15;;;1.30;99.90;;;;;;5037813;28;20042;-70
2023/03/01 06:04:04;;;;;;;256.05;38.72;;;1.30;99.90;;;;;;5053970;28;20538;-70
2023/03/01 06:06:32;;;;;;;202.32;32.30;;;1.30;99.90;;;;;;5056922;28;20021;-70
2023/03/01 06:08:58;;;;;;;251.85;37.22;;;1.20;99.90;;;;;;5058914;28;20063;-70
2023/03/01 06:11:23;;;;;;;265.85;41.35;;;1.20;99.90;;;;;;5051997;28;20028;-70
2023/03/01 06:13:49;;;;;;;221.38;35.97;;;1.20;99.90;;;;;;5045621;28;20461;-70
2023/03/01 06:16:15;;;;;;;216.63;37.08;;;1.20;99.90;;;;;;5044227;28;20025;-71
2023/03/01 06:18:41;;;;;;;220.48;36.63;;;1.10;99.90;;;;;;5034181;28;20021;-70
2023/03/01 06:21:08;;;;;;;278.75;39.28;;;1.10;99.90;;;;;;5040129;28;20053;-70
2023/03/01 06:23:39;;;;;;;247.70;42.85;;;1.10;99.90;;;;;;5046665;28;20128;-71
2023/03/01 06:26:07;;;;;;;361.58;45.70;;;1.10;99.90;;;;;;5045487;28;20508;-70
2023/03/01 06:28:32;;;;;;;337.67;45.70;;;1.00;99.90;;;;;;5049522;28;20107;-70
2023/03/01 06:30:58;;;;;;;244.80;43.63;;;1.00;99.90;;;;;;5043982;28;20069;-70
2023/03/01 06:33:24;;;;;;;204.80;36.28;;;1.00;99.90;;;;;;5054602;28;20035;-70
2023/03/01 06:35:50;;;;;;;179.77;34.78;;;1.00;99.90;;;;;;5055778;28;20468;-70
2023/03/01 06:38:18;;;;;;;244.25;39.95;;;1.00;99.90;;;;;;5040735;28;20041;-70
2023/03/01 06:40:43;;;;;;;187.30;40.22;;;1.00;99.90;;;;;;5050428;28;20118;-70
2023/03/01 06:43:09;;;;;;;225.15;43.17;;;1.10;99.90;;;;;;5048049;28;20288;-70
2023/03/01 06:45:34;;;;;;;173.25;37.80;;;1.10;99.90;;;;;;5044920;28;20071;-70
2023/03/01 06:48:07;;;;;;;197.68;36.13;;;1.10;99.90;;;;;;5055243;28;20025;-70
2023/03/01 06:50:34;;;;;;;162.50;36.22;;;1.10;99.90;;;;;;5054674;28;20021;-70
2023/03/01 06:53:00;;;;;;;229.95;39.90;;;1.10;99.90;;;;;;5070834;28;20037;-70
2023/03/01 06:55:26;;;;;;;246.23;43.47;;;1.20;99.90;;;;;;5061368;28;20044;-70
2023/03/01 06:57:59;;;;;;;154.48;41.05;;;1.20;99.90;;;;;;5064138;28;20035;-70
2023/03/01 07:00:25;;;;;;;320.05;49.40;;;1.20;99.90;;;;;;5068688;28;20082;-70
2023/03/01 07:02:52;;;;;;;251.35;45.42;;;1.30;99.90;;;;;;5050199;28;20033;-70
2023/03/01 07:05:18;;;;;;;357.58;50.15;;;1.30;99.90;;;;;;5041293;28;20028;-71
2023/03/01 07:07:44;;;;;;;131.90;36.53;;;1.40;99.90;;;;;;5054573;28;20028;-70
2023/03/01 07:10:10;;;;;;;213.18;35.63;;;1.50;99.90;;;;;;5054659;28;20400;-70
2023/03/01 07:12:36;;;;;;;255.10;38.50;;;1.50;99.90;;;;;;5053850;28;20051;-70
2023/03/01 07:15:03;;;;;;;159.13;33.00;;;1.60;99.90;;;;;;5054628;28;20464;-70
2023/03/01 07:17:28;;;;;;;305.13;42.65;;;1.70;99.90;;;;;;5048222;28;20056;-70
2023/03/01 07:19:54;;;;;;;214.27;33.17;;;1.80;99.90;;;;;;5047027;28;20067;-69
2023/03/01 07:22:19;;;;;;;280.05;41.78;;;1.80;99.90;;;;;;5053818;28;20496;-71
2023/03/01 07:24:45;;;;;;;207.93;33.25;;;1.90;99.90;;;;;;5053961;28;20025;-70
2023/03/01 07:27:11;;;;;;;415.60;44.33;;;1.90;99.90;;;;;;5054066;28;20028;-69
2023/03/01 07:29:36;;;;;;;407.52;41.55;;;2.00;99.90;;;;;;5054060;28;20029;-69
2023/03/01 07:32:04;;;;;;;393.10;41.20;;;2.00;99.90;;;;;;5053214;28;20029;-70
2023/03/01 07:34:29;;;;;;;308.00;39.65;;;2.10;99.90;;;;;;5052557;28;20108;-70
2023/03/01 07:36:55;;;;;;;361.95;39.40;;;2.20;99.90;;;;;;5044403;28;20026;-70
2023/03/01 07:39:22;;;;;;;325.35;38.90;;;2.30;99.90;;;;;;5032331;28;20025;-70
2023/03/01 07:41:48;;;;;;;251.45;34.78;;;2.40;99.90;;;;;;5040611;28;20077;-69
2023/03/01 07:44:15;;;;;;;328.65;37.20;;;2.50;99.90;;;;;;5053403;28;20497;-68
2023/03/01 07:46:40;;;;;;;151.52;25.27;;;2.50;99.90;;;;;;5053128;28;20036;-68
2023/03/01 07:49:06;;;;;;;675.20;81.18;;;2.60;99.90;;;;;;5053659;28;20025;-71
2023/03/01 07:51:32;;;;;;;266.15;31.00;;;2.70;99.90;;;;;;5053859;28;20029;-71
2023/03/01 07:53:57;;;;;;;297.98;33.35;;;2.70;99.90;;;;;;5041604;28;20043;-70
2023/03/01 07:56:23;;;;;;;309.08;32.78;;;2.70;99.90;;;;;;5044336;28;20427;-70
2023/03/01 07:58:49;;;;;;;245.82;29.73;;;2.80;99.90;;;;;;5053411;28;20373;-70
2023/03/01 08:01:18;;;;;;;375.92;39.75;;;2.90;99.90;;;;;;5064255;28;20037;-69
2023/03/01 08:03:44;;;;;;;255.75;32.40;;;2.90;99.90;;;;;;5056813;28;20045;-70
2023/03/01 08:06:11;;;;;;;286.15;31.88;;;3.00;99.90;;;;;;5047912;28;20111;-69
2023/03/01 08:08:39;;;;;;;154.82;26.38;;;3.10;99.90;;;;;;5056941;28;20028;-70
2023/03/01 08:11:06;;;;;;;84.35;23.67;;;3.30;99.90;;;;;;5043584;28;20507;-70
2023/03/01 08:13:32;;;;;;;71.28;22.23;;;3.50;99.90;;;;;;5063240;28;20032;-70
2023/03/01 08:16:06;;;;;;;50.28;21.65;;;3.60;99.90;;;;;;5055543;28;20111;-70
2023/03/01 08:18:32;;;;;;;37.08;20.17;;;3.70;99.90;;;;;;5066622;28;20108;-70
2023/03/01 08:21:09;;;;;;;39.42;21.83;;;3.90;99.90;;;;;;5061775;28;20075;-70
2023/03/01 08:23:35;;;;;;;39.55;19.50;;;4.10;99.90;;;;;;5056662;28;20048;-70
2023/03/01 08:26:18;;;;;;;37.33;19.77;;;4.20;99.90;;;;;;5066311;28;20021;-70
2023/03/01 08:28:44;;;;;;;50.53;21.42;;;4.40;99.90;;;;;;5055720;28;20024;-69
2023/03/01 08:31:18;;;;;;;47.25;22.33;;;4.60;99.90;;;;;;5061585;28;20125;-69
2023/03/01 08:33:50;;;;;;;40.95;20.63;;;4.70;99.90;;;;;;5068182;28;20440;-67
2023/03/01 08:36:16;;;;;;;52.47;22.60;;;4.80;99.90;;;;;;5039600;28;20103;-68
2023/03/01 08:38:41;;;;;;;165.10;30.05;;;5.00;99.90;;;;;;5065006;28;20032;-69
2023/03/01 08:41:07;;;;;;;220.95;31.83;;;5.10;99.90;;;;;;5063184;28;20032;-68
2023/03/01 08:43:33;;;;;;;55.80;21.80;;;5.20;99.90;;;;;;5056397;28;20049;-69
2023/03/01 08:45:58;;;;;;;88.18;25.00;;;5.30;99.90;;;;;;5068897;28;20029;-69
2023/03/01 08:48:24;;;;;;;81.78;22.27;;;5.40;99.90;;;;;;5058839;28;20103;-69
2023/03/01 08:50:51;;;;;;;83.13;22.08;;;5.40;99.90;;;;;;5064084;28;20029;-69
2023/03/01 08:53:17;;;;;;;61.65;20.98;;;5.40;99.90;;;;;;5052493;28;20097;-69
2023/03/01 08:55:42;;;;;;;90.13;22.52;;;5.40;99.90;;;;;;5051817;28;20487;-68
2023/03/01 08:58:08;;;;;;;88.45;22.33;;;5.40;99.90;;;;;;5052205;28;20098;-68
2023/03/01 09:00:34;;;;;;;49.90;18.70;;;5.40;99.90;;;;;;5052388;28;20044;-69
2023/03/01 09:03:00;;;;;;;75.15;22.33;;;5.40;99.90;;;;;;5050987;28;20056;-69
2023/03/01 09:05:25;;;;;;;71.38;19.75;;;5.50;99.90;;;;;;5038266;28;20060;-68
2023/03/01 09:07:51;;;;;;;45.75;17.05;;;5.60;99.90;;;;;;5040477;28;20033;-69
2023/03/01 09:10:17;;;;;;;44.58;15.68;;;5.50;99.90;;;;;;5037799;28;20029;-68
2023/03/01 09:12:42;;;;;;;57.10;19.35;;;5.40;99.90;;;;;;5032838;28;20025;-68
2023/03/01 09:15:08;;;;;;;80.03;21.95;;;5.30;99.90;;;;;;5031403;28;20025;-68
2023/03/01 09:17:34;;;;;;;75.90;20.63;;;5.30;99.90;;;;;;5032585;28;20057;-68
2023/03/01 09:20:00;;;;;;;104.15;23.73;;;5.30;99.90;;;;;;5042846;28;20079;-68
2023/03/01 09:22:25;;;;;;;80.10;22.63;;;5.30;99.90;;;;;;5021126;28;20616;-68
2023/03/01 09:24:51;;;;;;;70.18;20.35;;;5.40;99.90;;;;;;4988477;28;1066749;-68
2023/03/01 09:27:18;;;;;;;71.22;22.27;;;5.50;99.90;;;;;;5050716;28;20052;-69
2023/03/01 09:29:44;;;;;;;70.80;21.48;;;5.60;99.90;;;;;;5057750;28;20057;-69
2023/03/01 09:32:10;;;;;;;65.10;22.63;;;5.70;99.90;;;;;;5065572;28;20115;-69
2023/03/01 09:35:00;;;;;;;75.57;22.65;;;5.70;99.90;;;;;;5052393;28;20532;-69
2023/03/01 09:37:22;;;;;;;49.60;22.33;;;5.70;99.90;;;;;;5070373;28;20033;-69
2023/03/01 09:39:47;;;;;;;59.70;23.25;;;5.80;99.90;;;;;;5069152;28;20078;-68
2023/03/01 09:42:13;;;;;;;51.33;23.50;;;5.90;99.90;;;;;;5070773;28;20094;-68
2023/03/01 09:44:58;;;;;;;51.47;24.00;;;6.00;99.90;;;;;;5068920;28;20037;-69
2023/03/01 09:47:29;;;;;;;49.15;25.42;;;6.50;99.90;;;;;;5070003;28;20056;-68
2023/03/01 09:50:12;;;;;;;49.67;22.70;;;6.80;99.90;;;;;;5067554;28;20075;-67
2023/03/01 09:52:43;;;;;;;47.90;24.10;;;7.10;99.90;;;;;;5067740;28;20272;-68
2023/03/01 09:55:26;;;;;;;47.35;24.45;;;7.20;99.90;;;;;;5070325;28;20051;-68
2023/03/01 09:58:28;;;;;;;48.95;25.98;;;7.40;99.90;;;;;;5067855;28;20037;-69
2023/03/01 10:00:59;;;;;;;48.00;25.48;;;7.60;99.90;;;;;;5068117;28;20029;-68
2023/03/01 10:03:48;;;;;;;51.13;26.15;;;7.90;99.90;;;;;;5070190;28;20472;-69
2023/03/01 10:06:23;;;;;;;51.47;26.20;;;8.60;99.90;;;;;;5068653;28;20476;-69
2023/03/01 10:09:07;;;;;;;43.58;23.30;;;9.80;99.90;;;;;;5070645;28;20042;-69
2023/03/01 10:11:37;;;;;;;41.30;20.98;;;11.10;99.90;;;;;;5068393;28;20016;-69
2023/03/01 10:14:26;;;;;;;31.88;17.60;;;12.10;99.90;;;;;;5070365;28;20056;-69
2023/03/01 10:17:02;;;;;;;36.20;19.83;;;12.90;99.90;;;;;;5048599;28;20492;-69
2023/03/01 10:19:41;;;;;;;30.38;18.17;;;13.20;99.90;;;;;;5070068;28;20479;-69
2023/03/01 10:22:23;;;;;;;31.23;18.27;;;13.60;99.90;;;;;;5072661;28;20044;-69
2023/03/01 10:24:49;;;;;;;28.67;16.35;;;14.30;99.90;;;;;;5056239;28;20447;-69
2023/03/01 10:27:38;;;;;;;27.02;15.93;;;14.80;99.80;;;;;;5071555;28;20113;-69
2023/03/01 10:30:19;;;;;;;30.10;16.95;;;14.90;99.90;;;;;;5075044;28;20053;-69
2023/03/01 10:32:48;;;;;;;31.52;18.15;;;15.00;99.90;;;;;;5075185;28;20043;-70
2023/03/01 10:35:20;;;;;;;32.30;16.90;;;15.70;99.40;;;;;;5078450;28;20123;-69
2023/03/01 10:38:16;;;;;;;26.70;15.50;;;16.60;97.60;;;;;;5072319;28;20031;-69
2023/03/01 10:41:05;;;;;;;31.25;16.65;;;17.50;95.40;;;;;;5072976;28;20029;-69
2023/03/01 10:43:53;;;;;;;29.73;16.23;;;18.10;94.20;;;;;;5073747;28;20068;-69
2023/03/01 10:46:44;;;;;;;28.85;15.15;;;18.40;93.30;;;;;;5072494;28;20032;-69
2023/03/01 10:49:19;;;;;;;26.50;16.27;;;18.80;91.70;;;;;;5073762;28;20017;-70
2023/03/01 10:51:47;;;;;;;25.77;15.57;;;19.10;91.60;;;;;;5071064;28;20060;-70
2023/03/01 10:54:18;;;;;;;25.75;14.52;;;19.30;90.70;;;;;;5069461;28;20025;-71
2023/03/01 10:56:50;;;;;;;25.85;13.93;;;19.50;89.50;;;;;;5071835;28;20056;-70
2023/03/01 10:59:38;;;;;;;23.23;13.88;;;19.70;87.50;;;;;;5076952;28;20100;-70
2023/03/01 11:02:16;;;;;;;25.67;14.25;;;19.80;87.40;;;;;;5075758;28;20047;-70
2023/03/01 11:05:13;;;;;;;23.60;11.70;;;20.00;86.10;;;;;;5075088;28;20078;-70
2023/03/01 11:07:47;;;;;;;21.08;12.00;;;20.00;82.80;;;;;;5074523;28;20463;-70
2023/03/01 11:10:17;;;;;;;24.15;13.20;;;19.80;81.50;;;;;;5071280;28;20104;-70
2023/03/01 11:12:43;;;;;;;20.42;11.18;;;19.70;82.10;;;;;;5076072;28;20431;-69
2023/03/01 11:15:21;;;;;;;21.25;11.15;;;19.60;81.80;;;;;;5072797;28;20021;-70
2023/03/01 11:17:47;;;;;;;18.00;9.27;;;19.80;81.90;;;;;;5071986;28;20032;-70
2023/03/01 11:20:12;;;;;;;16.15;8.93;;;19.90;79.40;;;;;;5078595;28;20036;-69
2023/03/01 11:22:52;;;;;;;16.65;8.63;;;19.80;80.70;;;;;;5075665;28;20036;-70
2023/03/01 11:25:23;;;;;;;16.13;7.22;;;19.90;78.70;;;;;;5051980;28;20074;-70
2023/03/01 11:27:49;;;;;;;13.07;7.43;;;19.70;76.40;;;;;;5071800;28;20025;-70
2023/03/01 11:30:32;;;;;;;14.98;8.40;;;19.50;77.60;;;;;;5072956;28;20493;-70
2023/03/01 11:33:15;;;;;;;15.20;8.80;;;19.50;80.90;;;;;;5069596;28;20036;-70
2023/03/01 11:36:13;;;;;;;17.92;8.85;;;19.80;78.60;;;;;;5073071;28;20032;-70
2023/03/01 11:38:39;;;;;;;18.60;9.20;;;20.00;77.20;;;;;;5060759;28;20043;-70
2023/03/01 11:41:18;;;;;;;19.52;9.88;;;19.90;78.50;;;;;;5061175;28;20116;-69
2023/03/01 11:43:51;;;;;;;18.38;8.88;;;19.90;78.30;;;;;;5061004;28;20055;-70
2023/03/01 11:46:32;;;;;;;14.60;7.93;;;19.80;76.90;;;;;;5064564;28;20076;-71
2023/03/01 11:49:27;;;;;;;13.82;8.00;;;19.80;76.70;;;;;;5085546;28;20034;-70
2023/03/01 11:52:27;;;;;;;13.23;7.78;;;19.70;75.10;;;;;;5086286;28;20042;-72
2023/03/01 11:55:30;;;;;;;14.18;7.85;;;19.40;73.60;;;;;;5078317;28;20051;-71
2023/03/01 11:58:07;;;;;;;14.60;8.35;;;19.20;74.60;;;;;;5089332;28;20088;-71
2023/03/01 12:00:44;;;;;;;15.05;7.95;;;19.10;73.20;;;;;;5103826;28;20051;-70
2023/03/01 12:03:21;;;;;;;15.10;7.50;;;19.20;73.70;;;;;;5108046;28;20050;-69
2023/03/01 12:06:23;;;;;;;13.65;7.75;;;19.10;73.00;;;;;;5090731;28;20060;-69
2023/03/01 12:08:57;;;;;;;14.77;7.32;;;18.90;72.50;;;;;;5097270;28;20028;-74
2023/03/01 12:11:27;;;;;;;18.05;8.38;;;18.80;72.10;;;;;;5110089;28;20031;-71
2023/03/01 12:14:28;;;;;;;15.90;8.00;;;18.70;71.70;;;;;;5081216;28;20052;-71
2023/03/01 12:17:21;;;;;;;12.73;7.30;;;18.30;72.20;;;;;;5088785;28;20480;-70
2023/03/01 12:20:10;;;;;;;13.98;7.10;;;18.20;72.00;;;;;;5086383;28;20411;-70
2023/03/01 12:22:45;;;;;;;15.65;7.75;;;18.10;72.50;;;;;;5091808;28;20038;-71
2023/03/01 12:25:18;;;;;;;17.20;8.40;;;18.10;72.40;;;;;;5108106;28;20119;-70
2023/03/01 12:28:08;;;;;;;15.00;7.45;;;18.00;72.70;;;;;;5078116;28;20043;-69
2023/03/01 12:30:57;;;;;;;14.00;7.78;;;17.80;71.40;;;;;;5105678;28;20483;-69
2023/03/01 12:33:48;;;;;;;14.05;7.75;;;17.60;72.00;;;;;;5095229;28;20074;-69
2023/03/01 12:36:27;;;;;;;15.45;7.85;;;17.40;71.80;;;;;;5091967;28;20051;-70
2023/03/01 12:38:59;;;;;;;14.50;7.90;;;17.20;73.20;;;;;;5094191;28;20031;-73
2023/03/01 12:41:27;;;;;;;15.38;8.02;;;17.10;73.50;;;;;;5106844;28;20046;-70
2023/03/01 12:44:10;;;;;;;17.33;8.35;;;17.20;73.50;;;;;;5090579;28;20111;-70
2023/03/01 12:46:58;;;;;;;14.73;7.22;;;17.40;73.90;;;;;;5087548;28;20055;-69
2023/03/01 12:49:51;;;;;;;17.15;8.38;;;17.50;72.10;;;;;;5106392;28;20122;-70